Time;durP1;ratioP1;P1;durP2;ratioP2;P2;SDS_P1;SDS_P2;PMS_P1;PMS_P2;Temp;Humidity;BMP_temperature;BMP_pressure;BME280_temperature;BME280_humidity;BME280_pressure;Samples;Min_cycle;Max_cycle;Signal;HPM_P1;HPM_P2
2022/02/13 00:01:09;;;;;;;8.45;4.03;;;;;;;;;;5009132;28;20573;-66
2022/02/13 00:03:45;;;;;;;7.09;3.60;;;;;;;;;;4848081;28;10001001;-68
2022/02/13 00:06:14;;;;;;;7.05;3.20;;;;;;;;;;688372;28;10002102;-67
2022/02/13 00:08:42;;;;;;;9.10;3.28;;;;;;;;;;5007272;28;20379;-67
2022/02/13 00:11:16;;;;;;;7.32;4.10;;;;;;;;;;5008649;28;20497;-66
2022/02/13 00:13:45;;;;;;;10.60;3.70;;;;;;;;;;5009089;28;20555;-67
2022/02/13 00:16:13;;;;;;;7.25;3.63;;;;;;;;;;5008671;28;20137;-66
2022/02/13 00:18:41;;;;;;;7.32;3.55;;;;;;;;;;5005228;28;20586;-67
2022/02/13 00:21:30;;;;;;;6.50;3.40;;;;;;;;;;5003453;28;20513;-66
2022/02/13 00:23:59;;;;;;;8.68;3.63;;;;;;;;;;5000397;28;20069;-66
2022/02/13 00:26:29;;;;;;;8.30;3.15;;;;;;;;;;5008124;28;20058;-67
2022/02/13 00:28:58;;;;;;;8.68;4.15;;;;;;;;;;5005168;28;20074;-66
2022/02/13 00:31:26;;;;;;;6.45;3.60;;;;;;;;;;5007066;28;20078;-66
2022/02/13 00:33:55;;;;;;;8.60;3.55;;;;;;;;;;5008020;28;20101;-66
2022/02/13 00:36:23;;;;;;;8.38;3.65;;;;;;;;;;5008674;28;20209;-67
2022/02/13 00:38:51;;;;;;;6.70;4.13;;;;;;;;;;5007221;28;20559;-66
2022/02/13 00:41:20;;;;;;;6.75;3.55;;;;;;;;;;5008899;28;20057;-66
2022/02/13 00:43:50;;;;;;;6.13;3.65;;;;;;;;;;5007875;28;20065;-66
2022/02/13 00:46:19;;;;;;;7.38;3.30;;;;;;;;;;5008779;28;20132;-67
2022/02/13 00:48:47;;;;;;;8.65;3.97;;;;;;;;;;5007927;28;20132;-66
2022/02/13 00:51:15;;;;;;;6.38;3.83;;;;;;;;;;5009743;28;20073;-66
2022/02/13 00:53:44;;;;;;;8.85;3.70;;;;;;;;;;5007185;28;20052;-66
2022/02/13 00:56:12;;;;;;;5.40;2.90;;;;;;;;;;5007693;28;20080;-66
2022/02/13 00:58:40;;;;;;;10.20;3.38;;;;;;;;;;5009477;28;20137;-66
2022/02/13 01:01:10;;;;;;;6.95;2.83;;;;;;;;;;5006645;28;20383;-66
2022/02/13 01:03:38;;;;;;;6.70;3.47;;;;;;;;;;5006327;28;20088;-66
2022/02/13 01:06:06;;;;;;;6.63;3.33;;;;;;;;;;5006148;28;20168;-67
2022/02/13 01:08:35;;;;;;;6.75;2.75;;;;;;;;;;5006710;28;20102;-66
2022/02/13 01:11:06;;;;;;;8.50;2.88;;;;;;;;;;5009238;28;20472;-66
2022/02/13 01:13:35;;;;;;;4.72;2.50;;;;;;;;;;5006990;28;20601;-66
2022/02/13 01:16:06;;;;;;;5.10;2.95;;;;;;;;;;5010249;28;20417;-66
2022/02/13 01:18:36;;;;;;;6.15;2.63;;;;;;;;;;5011663;28;20158;-66
2022/02/13 01:21:08;;;;;;;5.63;2.65;;;;;;;;;;5012691;28;20045;-66
2022/02/13 01:23:36;;;;;;;5.45;2.75;;;;;;;;;;5011120;28;20140;-66
2022/02/13 01:26:08;;;;;;;4.53;2.25;;;;;;;;;;5011154;28;20066;-66
2022/02/13 01:28:36;;;;;;;4.55;2.60;;;;;;;;;;5011671;28;20093;-66
2022/02/13 01:31:08;;;;;;;6.13;2.85;;;;;;;;;;5010819;28;20130;-66
2022/02/13 01:33:38;;;;;;;6.97;2.20;;;;;;;;;;5008891;28;20490;-66
2022/02/13 01:36:09;;;;;;;5.70;2.45;;;;;;;;;;5010933;28;20050;-66
2022/02/13 01:38:37;;;;;;;5.25;2.40;;;;;;;;;;5011370;28;20054;-66
2022/02/13 01:41:08;;;;;;;5.60;2.97;;;;;;;;;;5011555;28;20133;-66
2022/02/13 01:43:37;;;;;;;4.97;2.97;;;;;;;;;;5011666;28;20115;-66
2022/02/13 01:46:09;;;;;;;5.03;2.63;;;;;;;;;;5010989;28;20411;-66
2022/02/13 01:48:39;;;;;;;6.13;3.15;;;;;;;;;;5002369;28;20077;-66
2022/02/13 01:51:07;;;;;;;5.95;2.40;;;;;;;;;;5011034;28;20140;-66
2022/02/13 01:53:51;;;;;;;5.73;2.67;;;;;;;;;;5010815;28;20045;-66
2022/02/13 01:56:19;;;;;;;4.95;2.80;;;;;;;;;;5011129;28;20050;-66
2022/02/13 01:58:47;;;;;;;5.25;2.72;;;;;;;;;;5010771;28;20049;-66
2022/02/13 02:01:16;;;;;;;7.68;3.30;;;;;;;;;;5011023;28;20145;-66
2022/02/13 02:04:04;;;;;;;6.92;2.49;;;;;;;;;;4527214;28;10001516;-67
2022/02/13 02:06:32;;;;;;;6.55;3.20;;;;;;;;;;1725927;28;10002009;-66
2022/02/13 02:09:01;;;;;;;6.60;2.92;;;;;;;;;;5011057;28;20100;-66
2022/02/13 02:11:29;;;;;;;4.53;2.55;;;;;;;;;;5011134;28;20130;-66
2022/02/13 02:13:58;;;;;;;7.43;2.30;;;;;;;;;;5011308;28;20078;-66
2022/02/13 02:16:26;;;;;;;7.20;2.65;;;;;;;;;;5010446;28;20084;-66
2022/02/13 02:18:54;;;;;;;4.75;2.70;;;;;;;;;;5010373;28;20129;-66
2022/02/13 02:21:24;;;;;;;4.65;2.30;;;;;;;;;;5008232;28;20154;-66
2022/02/13 02:23:54;;;;;;;5.85;2.85;;;;;;;;;;5010546;28;20148;-66
2022/02/13 02:26:22;;;;;;;6.75;2.42;;;;;;;;;;5009657;28;20489;-66
2022/02/13 02:28:50;;;;;;;3.83;2.60;;;;;;;;;;5009075;28;20177;-66
2022/02/13 02:31:19;;;;;;;4.95;2.60;;;;;;;;;;5010277;28;20062;-66
2022/02/13 02:33:48;;;;;;;4.97;2.63;;;;;;;;;;5010850;28;20408;-66
2022/02/13 02:36:16;;;;;;;5.25;2.70;;;;;;;;;;5010199;28;20514;-66
2022/02/13 02:38:45;;;;;;;4.10;2.45;;;;;;;;;;5002936;28;20141;-66
2022/02/13 02:41:15;;;;;;;5.18;2.20;;;;;;;;;;5004288;28;20111;-66
2022/02/13 02:43:44;;;;;;;5.53;2.85;;;;;;;;;;5008411;28;20096;-66
2022/02/13 02:46:12;;;;;;;4.97;1.98;;;;;;;;;;5009544;28;20045;-66
2022/02/13 02:48:41;;;;;;;4.82;2.45;;;;;;;;;;5009977;28;20506;-66
2022/02/13 02:51:10;;;;;;;5.18;2.38;;;;;;;;;;5010918;28;20092;-66
2022/02/13 02:53:38;;;;;;;3.38;1.92;;;;;;;;;;5009944;28;20494;-66
2022/02/13 02:56:06;;;;;;;4.57;1.85;;;;;;;;;;5002278;28;20405;-66
2022/02/13 02:58:36;;;;;;;5.55;2.25;;;;;;;;;;5010527;28;20072;-66
2022/02/13 03:01:07;;;;;;;4.80;2.08;;;;;;;;;;5008922;28;20624;-66
2022/02/13 03:03:36;;;;;;;6.13;2.33;;;;;;;;;;5010450;28;20136;-66
2022/02/13 03:06:07;;;;;;;3.70;1.95;;;;;;;;;;5009637;28;20125;-66
2022/02/13 03:08:36;;;;;;;4.18;2.17;;;;;;;;;;5006085;28;20129;-66
2022/02/13 03:11:07;;;;;;;5.85;2.58;;;;;;;;;;5009264;28;20045;-66
2022/02/13 03:13:37;;;;;;;6.78;1.85;;;;;;;;;;5007852;28;20127;-66
2022/02/13 03:16:08;;;;;;;4.68;1.90;;;;;;;;;;5005759;28;20054;-66
2022/02/13 03:18:37;;;;;;;4.28;1.83;;;;;;;;;;5001427;28;20161;-66
2022/02/13 03:21:08;;;;;;;3.42;1.83;;;;;;;;;;5009569;28;20077;-66
2022/02/13 03:23:37;;;;;;;6.65;2.28;;;;;;;;;;5009759;28;20545;-66
2022/02/13 03:26:08;;;;;;;2.00;1.80;;;;;;;;;;5008948;28;20076;-66
2022/02/13 03:28:37;;;;;;;4.88;2.38;;;;;;;;;;5010302;28;20421;-66
2022/02/13 03:31:09;;;;;;;6.90;1.90;;;;;;;;;;5004880;28;20061;-66
2022/02/13 03:33:37;;;;;;;4.55;1.98;;;;;;;;;;5010083;28;20100;-66
2022/02/13 03:36:08;;;;;;;4.65;2.17;;;;;;;;;;5007605;28;20048;-66
2022/02/13 03:38:37;;;;;;;1.73;1.50;;;;;;;;;;5009905;28;20137;-66
2022/02/13 03:41:06;;;;;;;4.53;1.63;;;;;;;;;;5009360;28;20127;-66
2022/02/13 03:43:35;;;;;;;4.97;1.58;;;;;;;;;;5006398;28;20046;-66
2022/02/13 03:46:07;;;;;;;2.42;1.50;;;;;;;;;;5005796;28;20445;-66
2022/02/13 03:48:35;;;;;;;2.95;1.45;;;;;;;;;;5006950;28;20455;-66
2022/02/13 03:51:06;;;;;;;7.80;1.90;;;;;;;;;;5009167;28;20133;-66
2022/02/13 03:53:35;;;;;;;4.97;1.60;;;;;;;;;;5005409;28;20129;-66
2022/02/13 03:56:07;;;;;;;4.07;1.67;;;;;;;;;;5008345;28;20128;-66
2022/02/13 03:58:35;;;;;;;3.00;2.30;;;;;;;;;;5008582;28;20161;-66
2022/02/13 04:01:07;;;;;;;2.67;1.98;;;;;;;;;;5009531;28;20100;-66
2022/02/13 04:03:36;;;;;;;4.15;2.10;;;;;;;;;;5008667;28;20077;-66
2022/02/13 04:06:07;;;;;;;4.00;2.00;;;;;;;;;;5008139;28;20054;-66
2022/02/13 04:08:36;;;;;;;6.78;2.47;;;;;;;;;;5008298;28;20401;-66
2022/02/13 04:11:08;;;;;;;7.15;2.33;;;;;;;;;;5008933;28;20111;-66
2022/02/13 04:13:36;;;;;;;3.08;1.60;;;;;;;;;;5008651;28;20041;-66
2022/02/13 04:16:08;;;;;;;2.83;1.48;;;;;;;;;;5008766;28;20045;-66
2022/02/13 04:18:37;;;;;;;4.97;2.03;;;;;;;;;;5009036;28;20092;-66
2022/02/13 04:21:08;;;;;;;3.90;2.00;;;;;;;;;;5001705;28;20150;-66
2022/02/13 04:23:36;;;;;;;3.80;2.30;;;;;;;;;;5008727;28;20478;-66
2022/02/13 04:26:07;;;;;;;2.95;2.10;;;;;;;;;;5007900;28;20125;-67
2022/02/13 04:28:36;;;;;;;2.35;1.65;;;;;;;;;;5008545;28;20107;-66
2022/02/13 04:31:08;;;;;;;4.20;1.80;;;;;;;;;;5008882;28;20140;-66
2022/02/13 04:33:37;;;;;;;3.88;1.63;;;;;;;;;;5006287;28;20116;-66
2022/02/13 04:36:08;;;;;;;9.30;1.95;;;;;;;;;;5004982;28;20085;-66
2022/02/13 04:38:36;;;;;;;3.45;1.58;;;;;;;;;;5005530;28;20081;-66
2022/02/13 04:41:08;;;;;;;3.45;1.80;;;;;;;;;;5005528;28;20137;-66
2022/02/13 04:43:36;;;;;;;3.13;2.25;;;;;;;;;;5005708;28;20585;-66
2022/02/13 04:46:09;;;;;;;2.75;1.35;;;;;;;;;;5005356;28;20133;-66
2022/02/13 04:48:37;;;;;;;3.92;1.92;;;;;;;;;;5011139;28;20052;-66
2022/02/13 04:51:15;;;;;;;3.52;1.68;;;;;;;;;;1639660;28;10024221;-67
2022/02/13 04:53:43;;;;;;;3.63;1.58;;;;;;;;;;3973609;28;10001087;-66
2022/02/13 04:56:11;;;;;;;1.80;1.45;;;;;;;;;;5011415;28;20124;-66
2022/02/13 04:58:40;;;;;;;2.58;1.52;;;;;;;;;;4997875;28;20200;-66
2022/02/13 05:01:09;;;;;;;2.00;1.30;;;;;;;;;;4993721;28;20133;-66
2022/02/13 05:03:38;;;;;;;5.30;1.83;;;;;;;;;;4993423;28;20057;-66
2022/02/13 05:06:07;;;;;;;2.47;1.65;;;;;;;;;;4992291;28;20074;-66
2022/02/13 05:08:35;;;;;;;2.00;1.15;;;;;;;;;;4992958;28;20140;-66
2022/02/13 05:11:06;;;;;;;1.67;1.25;;;;;;;;;;4989709;28;20137;-66
2022/02/13 05:13:35;;;;;;;2.42;1.55;;;;;;;;;;4992292;28;20138;-66
2022/02/13 05:16:06;;;;;;;2.53;1.10;;;;;;;;;;4991356;28;20062;-66
2022/02/13 05:18:36;;;;;;;1.95;1.35;;;;;;;;;;4989364;28;20482;-66
2022/02/13 05:21:07;;;;;;;1.17;1.08;;;;;;;;;;4992209;28;20138;-66
2022/02/13 05:23:36;;;;;;;1.27;0.98;;;;;;;;;;4992667;28;20069;-66
2022/02/13 05:26:12;;;;;;;2.83;1.10;;;;;;;;;;4989729;28;20043;-67
2022/02/13 05:28:40;;;;;;;1.60;0.93;;;;;;;;;;4985914;28;20161;-66
2022/02/13 05:31:09;;;;;;;0.95;0.90;;;;;;;;;;4993150;28;20125;-66
2022/02/13 05:33:38;;;;;;;1.58;0.88;;;;;;;;;;4992620;28;20415;-66
2022/02/13 05:36:07;;;;;;;2.88;1.33;;;;;;;;;;4991909;28;20117;-66
2022/02/13 05:38:35;;;;;;;2.50;1.15;;;;;;;;;;4992800;28;20050;-66
2022/02/13 05:41:06;;;;;;;2.78;1.20;;;;;;;;;;4991780;28;20046;-66
2022/02/13 05:43:34;;;;;;;1.38;1.27;;;;;;;;;;4992266;28;20163;-66
2022/02/13 05:46:05;;;;;;;4.18;1.45;;;;;;;;;;4990553;28;20363;-66
2022/02/13 05:48:34;;;;;;;1.48;0.90;;;;;;;;;;4992882;28;20157;-66
2022/02/13 05:51:10;;;;;;;1.65;0.90;;;;;;;;;;4991099;28;20057;-66
2022/02/13 05:53:39;;;;;;;1.67;0.75;;;;;;;;;;4990096;28;20134;-66
2022/02/13 05:56:08;;;;;;;1.23;0.77;;;;;;;;;;4991963;28;20049;-66
2022/02/13 05:58:39;;;;;;;1.67;1.17;;;;;;;;;;5005741;28;20148;-66
2022/02/13 06:01:08;;;;;;;2.10;1.27;;;;;;;;;;5007342;28;20081;-66
2022/02/13 06:03:36;;;;;;;3.03;1.15;;;;;;;;;;5008744;28;20144;-66
2022/02/13 06:06:09;;;;;;;2.67;0.90;;;;;;;;;;5010334;28;20042;-66
2022/02/13 06:08:38;;;;;;;2.30;1.25;;;;;;;;;;5011286;28;20153;-66
2022/02/13 06:11:11;;;;;;;1.08;0.70;;;;;;;;;;5010718;28;20137;-66
2022/02/13 06:13:39;;;;;;;2.05;0.98;;;;;;;;;;5007012;28;20061;-66
2022/02/13 06:16:08;;;;;;;2.85;1.25;;;;;;;;;;5011384;28;20136;-66
2022/02/13 06:18:36;;;;;;;2.38;0.90;;;;;;;;;;5009925;28;20494;-66
2022/02/13 06:21:09;;;;;;;1.02;0.80;;;;;;;;;;5003526;28;20450;-66
2022/02/13 06:23:38;;;;;;;1.30;0.90;;;;;;;;;;5008472;28;20077;-66
2022/02/13 06:26:09;;;;;;;0.65;0.60;;;;;;;;;;5009122;28;20099;-66
2022/02/13 06:28:37;;;;;;;1.35;0.80;;;;;;;;;;5009215;28;20563;-66
2022/02/13 06:31:09;;;;;;;2.15;0.85;;;;;;;;;;5010265;28;20434;-66
2022/02/13 06:33:37;;;;;;;1.23;0.88;;;;;;;;;;5007515;28;20050;-66
2022/02/13 06:36:09;;;;;;;1.95;0.85;;;;;;;;;;5004204;28;20408;-66
2022/02/13 06:38:38;;;;;;;7.90;1.30;;;;;;;;;;4998291;28;20112;-66
2022/02/13 06:41:09;;;;;;;2.15;1.05;;;;;;;;;;5006659;28;20140;-66
2022/02/13 06:43:38;;;;;;;1.50;1.02;;;;;;;;;;5007208;28;20116;-66
2022/02/13 06:46:09;;;;;;;2.00;1.00;;;;;;;;;;5002813;28;20528;-66
2022/02/13 06:48:37;;;;;;;2.45;1.42;;;;;;;;;;5006343;28;20049;-66
2022/02/13 06:51:10;;;;;;;1.65;1.00;;;;;;;;;;5007692;28;20261;-66
2022/02/13 06:53:39;;;;;;;2.20;1.40;;;;;;;;;;5003649;28;20084;-66
2022/02/13 06:56:07;;;;;;;3.08;0.90;;;;;;;;;;5005158;28;20049;-66
2022/02/13 06:58:35;;;;;;;2.50;1.02;;;;;;;;;;5006744;28;20045;-66
2022/02/13 07:01:09;;;;;;;0.68;0.68;;;;;;;;;;5004687;28;20050;-66
2022/02/13 07:03:37;;;;;;;1.25;1.13;;;;;;;;;;5007909;28;20137;-66
2022/02/13 07:06:07;;;;;;;1.23;0.80;;;;;;;;;;5006902;28;20073;-66
2022/02/13 07:08:37;;;;;;;1.15;0.90;;;;;;;;;;5006998;28;20604;-66
2022/02/13 07:11:09;;;;;;;1.75;0.98;;;;;;;;;;5005653;28;20585;-66
2022/02/13 07:13:38;;;;;;;1.63;0.90;;;;;;;;;;5007539;28;20053;-66
2022/02/13 07:16:08;;;;;;;1.98;0.90;;;;;;;;;;5007834;28;20050;-66
2022/02/13 07:18:36;;;;;;;1.83;0.60;;;;;;;;;;5009137;28;20050;-66
2022/02/13 07:21:07;;;;;;;2.78;1.02;;;;;;;;;;5007870;28;20089;-66
2022/02/13 07:23:37;;;;;;;0.93;0.75;;;;;;;;;;5005661;28;20061;-66
2022/02/13 07:26:10;;;;;;;1.92;1.00;;;;;;;;;;5006095;28;20045;-66
2022/02/13 07:31:24;;;;;;;1.15;1.00;;;;;;;;;;5007928;28;20050;-66
2022/02/13 07:33:53;;;;;;;1.02;0.70;;;;;;;;;;5007830;28;20121;-66
2022/02/13 07:36:21;;;;;;;1.27;1.00;;;;;;;;;;5007251;28;20144;-66
2022/02/13 07:38:51;;;;;;;1.67;1.00;;;;;;;;;;5006820;28;20574;-66
2022/02/13 07:41:19;;;;;;;1.88;1.10;;;;;;;;;;5006514;28;20183;-66
2022/02/13 07:43:48;;;;;;;1.75;0.75;;;;;;;;;;5004684;28;20467;-66
2022/02/13 07:46:16;;;;;;;2.22;1.00;;;;;;;;;;5006880;28;20053;-66
2022/02/13 07:48:45;;;;;;;1.38;0.80;;;;;;;;;;5006349;28;20476;-66
2022/02/13 07:51:14;;;;;;;1.33;0.88;;;;;;;;;;5008037;28;20050;-66
2022/02/13 07:53:44;;;;;;;2.90;1.55;;;;;;;;;;5005840;28;20426;-66
2022/02/13 07:56:15;;;;;;;2.03;1.02;;;;;;;;;;5003798;28;20045;-66
2022/02/13 07:58:43;;;;;;;1.52;0.60;;;;;;;;;;5003942;28;20050;-66
2022/02/13 08:01:14;;;;;;;1.23;1.05;;;;;;;;;;4994811;28;20054;-66
2022/02/13 08:03:42;;;;;;;2.08;0.80;;;;;;;;;;5002402;28;20073;-66
2022/02/13 08:06:17;;;;;;;2.38;0.93;;;;;;;;;;5007191;28;20501;-66
2022/02/13 08:08:45;;;;;;;0.73;0.73;;;;;;;;;;5005848;28;20124;-67
2022/02/13 08:11:16;;;;;;;1.38;0.95;;;;;;;;;;5006080;28;20490;-67
2022/02/13 08:13:45;;;;;;;1.00;0.55;;;;;;;;;;5005606;28;20045;-67
2022/02/13 08:16:15;;;;;;;3.55;0.90;;;;;;;;;;5006226;28;20073;-66
2022/02/13 08:18:43;;;;;;;0.82;0.63;;;;;;;;;;5003867;28;20585;-67
2022/02/13 08:21:12;;;;;;;4.10;0.75;;;;;;;;;;5006033;28;20050;-67
2022/02/13 08:23:41;;;;;;;4.05;0.85;;;;;;;;;;5006424;28;20085;-67
2022/02/13 08:26:10;;;;;;;1.05;0.82;;;;;;;;;;5006684;28;20077;-67
2022/02/13 08:28:40;;;;;;;4.00;0.80;;;;;;;;;;5004954;28;20137;-67
2022/02/13 08:31:09;;;;;;;2.80;1.02;;;;;;;;;;5001571;28;20042;-67
2022/02/13 08:33:37;;;;;;;1.70;0.80;;;;;;;;;;5005412;28;20133;-67
2022/02/13 08:36:08;;;;;;;2.28;1.10;;;;;;;;;;4997389;28;20054;-67
2022/02/13 08:38:37;;;;;;;2.75;0.93;;;;;;;;;;5005093;28;20053;-67
2022/02/13 08:41:08;;;;;;;1.30;0.68;;;;;;;;;;5003665;28;20398;-67
2022/02/13 08:43:37;;;;;;;3.00;0.93;;;;;;;;;;5006405;28;20502;-66
2022/02/13 08:46:09;;;;;;;4.97;0.98;;;;;;;;;;5005546;28;20060;-67
2022/02/13 08:48:38;;;;;;;0.82;0.70;;;;;;;;;;4992353;28;20145;-67
2022/02/13 08:51:09;;;;;;;2.17;1.15;;;;;;;;;;5005237;28;20104;-65
2022/02/13 08:53:38;;;;;;;1.27;0.80;;;;;;;;;;5001573;28;20132;-65
2022/02/13 08:56:09;;;;;;;1.00;0.70;;;;;;;;;;5002697;28;20100;-65
2022/02/13 08:58:37;;;;;;;1.25;0.60;;;;;;;;;;5005997;28;20065;-66
2022/02/13 09:01:10;;;;;;;1.55;0.95;;;;;;;;;;5006470;28;20054;-66
2022/02/13 09:03:51;;;;;;;0.82;0.63;;;;;;;;;;3491418;28;10023188;-66
2022/02/13 09:06:20;;;;;;;1.38;0.60;;;;;;;;;;2243448;28;10001919;-65
2022/02/13 09:08:48;;;;;;;1.67;0.70;;;;;;;;;;5007961;28;20046;-66
2022/02/13 09:11:17;;;;;;;1.48;0.73;;;;;;;;;;5003283;28;20140;-65
2022/02/13 09:13:46;;;;;;;1.40;0.70;;;;;;;;;;5003947;28;20145;-66
2022/02/13 09:16:15;;;;;;;0.85;0.68;;;;;;;;;;5004820;28;20158;-66
2022/02/13 09:18:44;;;;;;;1.90;0.80;;;;;;;;;;4996113;28;20092;-66
2022/02/13 09:21:12;;;;;;;1.05;0.55;;;;;;;;;;5006516;28;20058;-65
2022/02/13 09:23:41;;;;;;;2.33;0.50;;;;;;;;;;5005805;28;20085;-66
2022/02/13 09:26:10;;;;;;;1.17;0.63;;;;;;;;;;5004464;28;20490;-68
2022/02/13 09:28:38;;;;;;;1.20;0.73;;;;;;;;;;5005124;28;20056;-66
2022/02/13 09:31:08;;;;;;;1.13;0.70;;;;;;;;;;5003506;28;20042;-66
2022/02/13 09:33:38;;;;;;;2.95;0.90;;;;;;;;;;5006103;28;20552;-65
2022/02/13 09:36:07;;;;;;;1.95;1.00;;;;;;;;;;5007045;28;20052;-66
2022/02/13 09:38:35;;;;;;;1.60;0.80;;;;;;;;;;5009395;28;20046;-65
2022/02/13 09:41:07;;;;;;;1.98;0.88;;;;;;;;;;5009602;28;20753;-70
2022/02/13 09:43:36;;;;;;;1.65;0.77;;;;;;;;;;5006540;28;20054;-69
2022/02/13 09:46:08;;;;;;;1.80;0.90;;;;;;;;;;5008823;28;20068;-67
2022/02/13 09:48:39;;;;;;;3.00;0.70;;;;;;;;;;5008042;28;20489;-68
2022/02/13 09:51:11;;;;;;;1.77;0.80;;;;;;;;;;5008060;28;20596;-68
2022/02/13 09:53:40;;;;;;;2.60;0.75;;;;;;;;;;5006715;28;20046;-68
2022/02/13 09:56:10;;;;;;;6.25;0.98;;;;;;;;;;5007745;28;20054;-68
2022/02/13 09:58:39;;;;;;;2.90;1.00;;;;;;;;;;5008186;28;20058;-67
2022/02/13 10:01:10;;;;;;;2.35;0.80;;;;;;;;;;5006329;28;20062;-70
2022/02/13 10:03:42;;;;;;;1.10;0.75;;;;;;;;;;5004845;28;20822;-68
2022/02/13 10:06:25;;;;;;;1.80;1.00;;;;;;;;;;5007667;28;20819;-68
2022/02/13 10:08:55;;;;;;;3.47;0.93;;;;;;;;;;5005919;28;20477;-68
2022/02/13 10:11:25;;;;;;;4.32;1.17;;;;;;;;;;5006269;28;20061;-68
2022/02/13 10:13:55;;;;;;;3.63;1.13;;;;;;;;;;5007822;28;20057;-68
2022/02/13 10:16:25;;;;;;;1.95;1.13;;;;;;;;;;5006691;28;20115;-68
2022/02/13 10:18:57;;;;;;;1.92;0.98;;;;;;;;;;5002388;28;20054;-68
2022/02/13 10:21:36;;;;;;;5.72;1.30;;;;;;;;;;5006186;28;20089;-68
2022/02/13 10:24:15;;;;;;;4.28;1.45;;;;;;;;;;5007307;28;20049;-68
2022/02/13 10:26:44;;;;;;;1.33;1.02;;;;;;;;;;5006488;28;20129;-69
2022/02/13 10:29:13;;;;;;;2.15;1.15;;;;;;;;;;5007266;28;20049;-69
2022/02/13 10:31:43;;;;;;;2.38;1.30;;;;;;;;;;5007670;28;20073;-69
2022/02/13 10:34:15;;;;;;;2.25;1.33;;;;;;;;;;5007600;28;20527;-68
2022/02/13 10:36:45;;;;;;;3.08;1.40;;;;;;;;;;5006762;28;20547;-68
2022/02/13 10:39:18;;;;;;;3.65;1.58;;;;;;;;;;5007514;28;20465;-68
2022/02/13 10:41:47;;;;;;;7.05;1.50;;;;;;;;;;5004161;28;20473;-69
2022/02/13 10:44:15;;;;;;;3.60;1.48;;;;;;;;;;5006839;28;20053;-70
2022/02/13 10:46:45;;;;;;;8.27;1.42;;;;;;;;;;5005604;28;20049;-69
2022/02/13 10:49:16;;;;;;;4.32;1.80;;;;;;;;;;5007237;28;20046;-69
2022/02/13 10:51:45;;;;;;;2.47;1.48;;;;;;;;;;5006730;28;20046;-69
2022/02/13 10:54:14;;;;;;;4.57;1.77;;;;;;;;;;5006645;28;20132;-68
2022/02/13 10:56:43;;;;;;;2.80;1.27;;;;;;;;;;5006127;28;20101;-68
2022/02/13 10:59:13;;;;;;;3.22;1.75;;;;;;;;;;5005348;28;20053;-69
2022/02/13 11:01:42;;;;;;;2.15;1.50;;;;;;;;;;5004260;28;20124;-69
2022/02/13 11:04:11;;;;;;;4.57;1.50;;;;;;;;;;5006217;28;20056;-69
2022/02/13 11:06:42;;;;;;;4.75;1.67;;;;;;;;;;4998769;28;20128;-69
2022/02/13 11:09:12;;;;;;;3.75;1.50;;;;;;;;;;5007033;28;20046;-68
2022/02/13 11:11:45;;;;;;;4.78;1.77;;;;;;;;;;5006200;28;20050;-69
2022/02/13 11:14:28;;;;;;;5.82;1.65;;;;;;;;;;5006684;28;20486;-69
2022/02/13 11:16:57;;;;;;;5.00;1.42;;;;;;;;;;5006494;28;20532;-69
2022/02/13 11:19:26;;;;;;;3.03;1.45;;;;;;;;;;5006673;28;20052;-69
2022/02/13 11:21:56;;;;;;;3.08;1.60;;;;;;;;;;5006576;28;20133;-69
2022/02/13 11:24:26;;;;;;;3.08;1.63;;;;;;;;;;5006101;28;20089;-69
2022/02/13 11:26:59;;;;;;;3.05;1.70;;;;;;;;;;5004684;28;20062;-69
2022/02/13 11:29:43;;;;;;;5.47;2.10;;;;;;;;;;5005770;28;20429;-68
2022/02/13 11:32:27;;;;;;;4.45;1.90;;;;;;;;;;4996629;28;20042;-68
2022/02/13 11:34:55;;;;;;;2.75;1.65;;;;;;;;;;5004674;28;20070;-68
2022/02/13 11:37:40;;;;;;;4.38;1.55;;;;;;;;;;5004604;28;20053;-69
2022/02/13 11:40:09;;;;;;;5.63;1.95;;;;;;;;;;5003830;28;20045;-68
2022/02/13 11:42:38;;;;;;;3.47;1.60;;;;;;;;;;4998496;28;20054;-68
2022/02/13 11:45:18;;;;;;;4.47;1.52;;;;;;;;;;5002861;28;20056;-69
2022/02/13 11:47:48;;;;;;;4.57;1.58;;;;;;;;;;5006231;28;20049;-69
2022/02/13 11:50:25;;;;;;;6.03;1.90;;;;;;;;;;5006606;28;20486;-69
2022/02/13 11:53:04;;;;;;;2.72;1.63;;;;;;;;;;5007537;28;20111;-69
2022/02/13 11:55:38;;;;;;;3.13;1.60;;;;;;;;;;5006449;28;20097;-69
2022/02/13 11:58:12;;;;;;;5.70;1.63;;;;;;;;;;5005520;28;20058;-69
2022/02/13 12:00:51;;;;;;;4.32;1.80;;;;;;;;;;5002372;28;20169;-69
2022/02/13 12:03:21;;;;;;;3.63;1.85;;;;;;;;;;5005251;28;20108;-69
2022/02/13 12:05:53;;;;;;;7.22;1.52;;;;;;;;;;5005800;28;20561;-69
2022/02/13 12:08:25;;;;;;;2.83;1.33;;;;;;;;;;5006254;28;20046;-70
2022/02/13 12:11:02;;;;;;;2.80;1.30;;;;;;;;;;5005065;28;20081;-69
2022/02/13 12:13:38;;;;;;;2.67;1.37;;;;;;;;;;5004615;28;20053;-69
2022/02/13 12:16:11;;;;;;;4.57;1.50;;;;;;;;;;5003151;28;20293;-69
2022/02/13 12:18:40;;;;;;;4.05;1.50;;;;;;;;;;5006464;28;20046;-69
2022/02/13 12:21:11;;;;;;;7.22;1.65;;;;;;;;;;5005757;28;20112;-69
2022/02/13 12:23:41;;;;;;;2.65;1.48;;;;;;;;;;5004719;28;20049;-70
2022/02/13 12:26:10;;;;;;;3.05;1.30;;;;;;;;;;5005933;28;20058;-70
2022/02/13 12:28:39;;;;;;;3.88;1.60;;;;;;;;;;5005787;28;20049;-69
2022/02/13 12:31:08;;;;;;;3.65;1.60;;;;;;;;;;5006811;28;20042;-69
2022/02/13 12:33:43;;;;;;;5.07;1.70;;;;;;;;;;5005220;28;20077;-70
2022/02/13 12:36:12;;;;;;;4.43;1.48;;;;;;;;;;5005676;28;20140;-70
2022/02/13 12:38:42;;;;;;;4.78;1.45;;;;;;;;;;5006881;28;20478;-69
2022/02/13 12:41:11;;;;;;;5.15;1.45;;;;;;;;;;4995153;28;20046;-69
2022/02/13 12:43:39;;;;;;;3.97;1.05;;;;;;;;;;5005615;28;20495;-69
2022/02/13 12:46:09;;;;;;;2.03;1.17;;;;;;;;;;4990839;28;20049;-70
2022/02/13 12:48:39;;;;;;;3.60;1.50;;;;;;;;;;5005315;28;20089;-70
2022/02/13 12:51:11;;;;;;;4.15;1.90;;;;;;;;;;4992957;28;20073;-70
2022/02/13 12:53:42;;;;;;;3.90;2.20;;;;;;;;;;5005946;28;20060;-70
2022/02/13 12:56:15;;;;;;;3.33;1.77;;;;;;;;;;5005093;28;20058;-70
2022/02/13 12:58:44;;;;;;;3.53;1.40;;;;;;;;;;5004389;28;20053;-70
2022/02/13 13:01:14;;;;;;;4.55;1.40;;;;;;;;;;5006416;28;20493;-69
2022/02/13 13:03:43;;;;;;;3.15;1.67;;;;;;;;;;5003803;28;20104;-70
2022/02/13 13:06:25;;;;;;;4.90;1.23;;;;;;;;;;5004690;28;20046;-70
2022/02/13 13:08:58;;;;;;;4.70;1.70;;;;;;;;;;5003381;28;20045;-70
2022/02/13 13:11:29;;;;;;;4.97;1.60;;;;;;;;;;5009006;28;20076;-70
2022/02/13 13:14:07;;;;;;;3.10;1.23;;;;;;;;;;5009985;28;20057;-70
2022/02/13 13:16:36;;;;;;;1.92;1.35;;;;;;;;;;5008764;28;20053;-70
2022/02/13 13:19:13;;;;;;;2.22;1.25;;;;;;;;;;5003703;28;20104;-70
2022/02/13 13:21:44;;;;;;;1.73;1.00;;;;;;;;;;5012132;28;20058;-70
2022/02/13 13:24:25;;;;;;;2.28;1.40;;;;;;;;;;5011049;28;20054;-71
2022/02/13 13:26:57;;;;;;;2.65;1.30;;;;;;;;;;5009514;28;20066;-70
2022/02/13 13:29:27;;;;;;;4.22;1.35;;;;;;;;;;5011238;28;20452;-70
2022/02/13 13:31:57;;;;;;;3.70;1.20;;;;;;;;;;5010231;28;20046;-71
2022/02/13 13:34:26;;;;;;;3.75;1.10;;;;;;;;;;5011661;28;20092;-70
2022/02/13 13:37:27;;;;;;;2.48;1.75;;;;;;;;;;3072463;28;10002453;-70
2022/02/13 13:40:06;;;;;;;2.17;1.10;;;;;;;;;;3629321;28;10001967;-70
2022/02/13 13:42:38;;;;;;;3.28;1.27;;;;;;;;;;4997287;28;20398;-71
2022/02/13 13:45:08;;;;;;;3.00;1.30;;;;;;;;;;5010614;28;20107;-70
2022/02/13 13:47:41;;;;;;;3.50;1.10;;;;;;;;;;5008716;28;20088;-70
2022/02/13 13:50:11;;;;;;;2.15;1.73;;;;;;;;;;5011242;28;20085;-70
2022/02/13 13:52:41;;;;;;;1.85;0.90;;;;;;;;;;5012034;28;20045;-70
2022/02/13 13:55:12;;;;;;;2.45;1.10;;;;;;;;;;5011936;28;20050;-70
2022/02/13 13:57:42;;;;;;;1.67;1.05;;;;;;;;;;5011053;28;20101;-70
2022/02/13 14:00:11;;;;;;;3.08;1.50;;;;;;;;;;5010697;28;20050;-69
2022/02/13 14:02:47;;;;;;;1.88;1.35;;;;;;;;;;5011828;28;20667;-69
2022/02/13 14:05:16;;;;;;;5.20;1.40;;;;;;;;;;5010608;28;20064;-70
2022/02/13 14:07:45;;;;;;;2.33;0.90;;;;;;;;;;5009371;28;20140;-70
2022/02/13 14:10:16;;;;;;;4.70;1.17;;;;;;;;;;5011871;28;20053;-70
2022/02/13 14:12:47;;;;;;;3.88;1.17;;;;;;;;;;5005620;28;20054;-70
2022/02/13 14:15:17;;;;;;;3.80;1.38;;;;;;;;;;5009280;28;20074;-70
2022/02/13 14:17:46;;;;;;;3.75;1.45;;;;;;;;;;5009268;28;20572;-69
2022/02/13 14:20:16;;;;;;;1.83;1.08;;;;;;;;;;5009261;28;20099;-69
2022/02/13 14:22:45;;;;;;;3.88;1.20;;;;;;;;;;5010657;28;20054;-69
2022/02/13 14:25:14;;;;;;;5.57;1.60;;;;;;;;;;5011858;28;20057;-69
2022/02/13 14:27:44;;;;;;;3.47;1.30;;;;;;;;;;5009668;28;20056;-70
2022/02/13 14:30:13;;;;;;;3.78;1.30;;;;;;;;;;5005371;28;20387;-69
2022/02/13 14:32:42;;;;;;;1.60;1.15;;;;;;;;;;5002158;28;20050;-69
2022/02/13 14:35:12;;;;;;;1.95;1.10;;;;;;;;;;5009712;28;20054;-70
2022/02/13 14:37:44;;;;;;;4.20;1.50;;;;;;;;;;5009847;28;20487;-70
2022/02/13 14:40:14;;;;;;;2.80;1.40;;;;;;;;;;5011233;28;20050;-70
2022/02/13 14:42:45;;;;;;;3.00;1.17;;;;;;;;;;5009973;28;20157;-69
2022/02/13 14:45:14;;;;;;;2.22;1.23;;;;;;;;;;5010077;28;20104;-69
2022/02/13 14:47:43;;;;;;;2.42;1.15;;;;;;;;;;5009995;28;20120;-70
2022/02/13 14:50:12;;;;;;;2.17;1.23;;;;;;;;;;5010363;28;20079;-72
2022/02/13 14:52:41;;;;;;;3.28;1.10;;;;;;;;;;5010282;28;20124;-70
2022/02/13 14:55:10;;;;;;;5.63;1.40;;;;;;;;;;5008498;28;20679;-70
2022/02/13 14:57:39;;;;;;;3.58;1.23;;;;;;;;;;5009241;28;20505;-71
2022/02/13 15:00:11;;;;;;;2.38;1.10;;;;;;;;;;5008335;28;20140;-70
2022/02/13 15:02:41;;;;;;;4.78;1.45;;;;;;;;;;5010735;28;20470;-71